<?xml version="1.0" encoding="UTF-8" standalone="no" ?>
<gpx xmlns="http://www.topografix.com/GPX/1/1" xmlns:xsi="http://www.w3.org/2001/XMLSchema-instance" xsi:schemaLocation="http://www.topografix.com/GPX/1/1 http://www.topografix.com/GPX/1/1/gpx.xsd" version="1.1" creator="VisuGPX - https://www.visugpx.com">
  <metadata>
    <name>Arêches-Crêt du Boeuf</name>
    <desc><![CDATA[Carte IGN TOP25 : 3532OT - Massif du Beaufortain Moûtiers La Plagne.
Départ de Arêches-Barrage de Saint-Guérin.

]]></desc>
  </metadata>
  <trk>
    <name><![CDATA[Arêches-Crêt du Boeuf]]></name>
    <cmt><![CDATA[Carte IGN TOP25 : 3532OT - Massif du Beaufortain Moûtiers La Plagne
Départ de Arêches-Barrage de Saint-Guérin]]></cmt>
    <trkseg>
      <trkpt lat="45.65124" lon="6.58138">
        <ele>1578</ele>
        <time>2021-02-26T08:00:00.082Z</time>
      </trkpt>
      <trkpt lat="45.65132" lon="6.58195">
        <ele>1578</ele>
        <time>2021-02-26T08:01:20.394Z</time>
      </trkpt>
      <trkpt lat="45.65155" lon="6.58246">
        <ele>1584</ele>
        <time>2021-02-26T08:02:37.155Z</time>
      </trkpt>
      <trkpt lat="45.65169" lon="6.58343">
        <ele>1592</ele>
        <time>2021-02-26T08:04:54.212Z</time>
      </trkpt>
      <trkpt lat="45.65159" lon="6.58429">
        <ele>1603</ele>
        <time>2021-02-26T08:06:54.807Z</time>
      </trkpt>
      <trkpt lat="45.65139" lon="6.58467">
        <ele>1606</ele>
        <time>2021-02-26T08:07:41.446Z</time>
      </trkpt>
      <trkpt lat="45.65099" lon="6.5852">
        <ele>1603</ele>
        <time>2021-02-26T08:08:56.923Z</time>
      </trkpt>
      <trkpt lat="45.65093" lon="6.58557">
        <ele>1606</ele>
        <time>2021-02-26T08:09:54.636Z</time>
      </trkpt>
      <trkpt lat="45.65094" lon="6.58608">
        <ele>1614</ele>
        <time>2021-02-26T08:11:03.059Z</time>
      </trkpt>
      <trkpt lat="45.65076" lon="6.58621">
        <ele>1619</ele>
        <time>2021-02-26T08:11:40.988Z</time>
      </trkpt>
      <trkpt lat="45.65018" lon="6.58586">
        <ele>1622</ele>
        <time>2021-02-26T08:13:12.177Z</time>
      </trkpt>
      <trkpt lat="45.65005" lon="6.58587">
        <ele>1622</ele>
        <time>2021-02-26T08:13:31.997Z</time>
      </trkpt>
      <trkpt lat="45.64997" lon="6.586">
        <ele>1622</ele>
        <time>2021-02-26T08:13:49.612Z</time>
      </trkpt>
      <trkpt lat="45.64991" lon="6.58642">
        <ele>1624</ele>
        <time>2021-02-26T08:14:43.196Z</time>
      </trkpt>
      <trkpt lat="45.64945" lon="6.5872">
        <ele>1634</ele>
        <time>2021-02-26T08:16:56.794Z</time>
      </trkpt>
      <trkpt lat="45.6492" lon="6.58728">
        <ele>1637</ele>
        <time>2021-02-26T08:18:05.929Z</time>
      </trkpt>
      <trkpt lat="45.64861" lon="6.5872">
        <ele>1654</ele>
        <time>2021-02-26T08:20:38.525Z</time>
      </trkpt>
      <trkpt lat="45.64783" lon="6.58669">
        <ele>1670</ele>
        <time>2021-02-26T08:23:05.408Z</time>
      </trkpt>
      <trkpt lat="45.64767" lon="6.58646">
        <ele>1666</ele>
        <time>2021-02-26T08:23:37.815Z</time>
      </trkpt>
      <trkpt lat="45.64724" lon="6.58619">
        <ele>1665</ele>
        <time>2021-02-26T08:24:53.798Z</time>
      </trkpt>
      <trkpt lat="45.64678" lon="6.58606">
        <ele>1675</ele>
        <time>2021-02-26T08:26:05.504Z</time>
      </trkpt>
      <trkpt lat="45.64666" lon="6.58581">
        <ele>1678</ele>
        <time>2021-02-26T08:26:37.482Z</time>
      </trkpt>
      <trkpt lat="45.64625" lon="6.5853">
        <ele>1672</ele>
        <time>2021-02-26T08:27:52.461Z</time>
      </trkpt>
      <trkpt lat="45.64518" lon="6.58466">
        <ele>1676</ele>
        <time>2021-02-26T08:30:36.181Z</time>
      </trkpt>
      <trkpt lat="45.64496" lon="6.5846">
        <ele>1674</ele>
        <time>2021-02-26T08:31:09.477Z</time>
      </trkpt>
      <trkpt lat="45.6444" lon="6.5846">
        <ele>1668</ele>
        <time>2021-02-26T08:32:29.331Z</time>
      </trkpt>
      <trkpt lat="45.64385" lon="6.58506">
        <ele>1665</ele>
        <time>2021-02-26T08:33:57.114Z</time>
      </trkpt>
      <trkpt lat="45.64342" lon="6.58517">
        <ele>1662</ele>
        <time>2021-02-26T08:35:00.241Z</time>
      </trkpt>
      <trkpt lat="45.64316" lon="6.58532">
        <ele>1659</ele>
        <time>2021-02-26T08:35:39.929Z</time>
      </trkpt>
      <trkpt lat="45.6429" lon="6.58571">
        <ele>1656</ele>
        <time>2021-02-26T08:36:34.240Z</time>
      </trkpt>
      <trkpt lat="45.64258" lon="6.58596">
        <ele>1653</ele>
        <time>2021-02-26T08:37:26.665Z</time>
      </trkpt>
      <trkpt lat="45.6421" lon="6.58617">
        <ele>1648</ele>
        <time>2021-02-26T08:38:39.422Z</time>
      </trkpt>
      <trkpt lat="45.64183" lon="6.58645">
        <ele>1645</ele>
        <time>2021-02-26T08:39:26.585Z</time>
      </trkpt>
      <trkpt lat="45.64163" lon="6.58648">
        <ele>1644</ele>
        <time>2021-02-26T08:39:55.192Z</time>
      </trkpt>
      <trkpt lat="45.64114" lon="6.58688">
        <ele>1640</ele>
        <time>2021-02-26T08:41:15.394Z</time>
      </trkpt>
      <trkpt lat="45.6409" lon="6.58699">
        <ele>1638</ele>
        <time>2021-02-26T08:41:50.160Z</time>
      </trkpt>
      <trkpt lat="45.64027" lon="6.58711">
        <ele>1636</ele>
        <time>2021-02-26T08:43:17.616Z</time>
      </trkpt>
      <trkpt lat="45.63995" lon="6.5871">
        <ele>1635</ele>
        <time>2021-02-26T08:44:02.409Z</time>
      </trkpt>
      <trkpt lat="45.63928" lon="6.58734">
        <ele>1635</ele>
        <time>2021-02-26T08:45:42.623Z</time>
      </trkpt>
      <trkpt lat="45.63876" lon="6.58739">
        <ele>1638</ele>
        <time>2021-02-26T08:46:58.625Z</time>
      </trkpt>
      <trkpt lat="45.63807" lon="6.58768">
        <ele>1639</ele>
        <time>2021-02-26T08:48:44.795Z</time>
      </trkpt>
      <trkpt lat="45.63791" lon="6.58778">
        <ele>1640</ele>
        <time>2021-02-26T08:49:10.705Z</time>
      </trkpt>
      <trkpt lat="45.63782" lon="6.58798">
        <ele>1642</ele>
        <time>2021-02-26T08:49:39.969Z</time>
      </trkpt>
      <trkpt lat="45.6377" lon="6.58809">
        <ele>1644</ele>
        <time>2021-02-26T08:50:18.315Z</time>
      </trkpt>
      <trkpt lat="45.63753" lon="6.58812">
        <ele>1647</ele>
        <time>2021-02-26T08:51:07.883Z</time>
      </trkpt>
      <trkpt lat="45.63716" lon="6.5884">
        <ele>1661</ele>
        <time>2021-02-26T08:53:58.637Z</time>
      </trkpt>
      <trkpt lat="45.63704" lon="6.58911">
        <ele>1681</ele>
        <time>2021-02-26T08:56:52.519Z</time>
      </trkpt>
      <trkpt lat="45.63689" lon="6.58919">
        <ele>1685</ele>
        <time>2021-02-26T08:57:26.128Z</time>
      </trkpt>
      <trkpt lat="45.6367" lon="6.58916">
        <ele>1687</ele>
        <time>2021-02-26T08:57:55.990Z</time>
      </trkpt>
      <trkpt lat="45.63607" lon="6.58948">
        <ele>1687</ele>
        <time>2021-02-26T08:59:38.582Z</time>
      </trkpt>
      <trkpt lat="45.63588" lon="6.58986">
        <ele>1693</ele>
        <time>2021-02-26T09:00:49.516Z</time>
      </trkpt>
      <trkpt lat="45.63545" lon="6.59031">
        <ele>1702</ele>
        <time>2021-02-26T09:02:17.021Z</time>
      </trkpt>
      <trkpt lat="45.63493" lon="6.59069">
        <ele>1704</ele>
        <time>2021-02-26T09:03:46.836Z</time>
      </trkpt>
      <trkpt lat="45.63465" lon="6.59099">
        <ele>1708</ele>
        <time>2021-02-26T09:04:50.813Z</time>
      </trkpt>
      <trkpt lat="45.63423" lon="6.59109">
        <ele>1714</ele>
        <time>2021-02-26T09:06:01.446Z</time>
      </trkpt>
      <trkpt lat="45.63378" lon="6.59134">
        <ele>1717</ele>
        <time>2021-02-26T09:07:14.665Z</time>
      </trkpt>
      <trkpt lat="45.63336" lon="6.5917">
        <ele>1720</ele>
        <time>2021-02-26T09:08:43.933Z</time>
      </trkpt>
      <trkpt lat="45.63296" lon="6.59183">
        <ele>1728</ele>
        <time>2021-02-26T09:10:29.423Z</time>
      </trkpt>
      <trkpt lat="45.63287" lon="6.59194">
        <ele>1731</ele>
        <time>2021-02-26T09:10:59.606Z</time>
      </trkpt>
      <trkpt lat="45.63289" lon="6.59207">
        <ele>1733</ele>
        <time>2021-02-26T09:11:22.557Z</time>
      </trkpt>
      <trkpt lat="45.63254" lon="6.59262">
        <ele>1746</ele>
        <time>2021-02-26T09:13:28.108Z</time>
      </trkpt>
      <trkpt lat="45.63251" lon="6.59283">
        <ele>1749</ele>
        <time>2021-02-26T09:14:02.540Z</time>
      </trkpt>
      <trkpt lat="45.63234" lon="6.59278">
        <ele>1751</ele>
        <time>2021-02-26T09:14:30.632Z</time>
      </trkpt>
      <trkpt lat="45.63224" lon="6.59291">
        <ele>1751</ele>
        <time>2021-02-26T09:14:50.727Z</time>
      </trkpt>
      <trkpt lat="45.63184" lon="6.59432">
        <ele>1756</ele>
        <time>2021-02-26T09:17:43.268Z</time>
      </trkpt>
      <trkpt lat="45.63179" lon="6.59472">
        <ele>1764</ele>
        <time>2021-02-26T09:18:57.337Z</time>
      </trkpt>
      <trkpt lat="45.63174" lon="6.59479">
        <ele>1766</ele>
        <time>2021-02-26T09:19:15.620Z</time>
      </trkpt>
      <trkpt lat="45.6316" lon="6.5948">
        <ele>1769</ele>
        <time>2021-02-26T09:19:50.576Z</time>
      </trkpt>
      <trkpt lat="45.63154" lon="6.59527">
        <ele>1775</ele>
        <time>2021-02-26T09:20:53.875Z</time>
      </trkpt>
      <trkpt lat="45.63143" lon="6.59532">
        <ele>1777</ele>
        <time>2021-02-26T09:21:14.844Z</time>
      </trkpt>
      <trkpt lat="45.63136" lon="6.59575">
        <ele>1779</ele>
        <time>2021-02-26T09:21:57.965Z</time>
      </trkpt>
      <trkpt lat="45.63122" lon="6.59563">
        <ele>1779</ele>
        <time>2021-02-26T09:22:21.457Z</time>
      </trkpt>
      <trkpt lat="45.63064" lon="6.59558">
        <ele>1778</ele>
        <time>2021-02-26T09:23:40.804Z</time>
      </trkpt>
      <trkpt lat="45.6304" lon="6.59516">
        <ele>1778</ele>
        <time>2021-02-26T09:24:36.877Z</time>
      </trkpt>
      <trkpt lat="45.6303" lon="6.59512">
        <ele>1779</ele>
        <time>2021-02-26T09:24:52.693Z</time>
      </trkpt>
      <trkpt lat="45.62991" lon="6.59543">
        <ele>1782</ele>
        <time>2021-02-26T09:26:03.408Z</time>
      </trkpt>
      <trkpt lat="45.62992" lon="6.59488">
        <ele>1786</ele>
        <time>2021-02-26T09:27:14.358Z</time>
      </trkpt>
      <trkpt lat="45.62985" lon="6.59481">
        <ele>1787</ele>
        <time>2021-02-26T09:27:29.341Z</time>
      </trkpt>
      <trkpt lat="45.62959" lon="6.5952">
        <ele>1793</ele>
        <time>2021-02-26T09:28:51.196Z</time>
      </trkpt>
      <trkpt lat="45.62934" lon="6.59545">
        <ele>1799</ele>
        <time>2021-02-26T09:30:01.011Z</time>
      </trkpt>
      <trkpt lat="45.62917" lon="6.59537">
        <ele>1803</ele>
        <time>2021-02-26T09:30:41.847Z</time>
      </trkpt>
      <trkpt lat="45.6286" lon="6.59603">
        <ele>1816</ele>
        <time>2021-02-26T09:33:05.888Z</time>
      </trkpt>
      <trkpt lat="45.62796" lon="6.59602">
        <ele>1823</ele>
        <time>2021-02-26T09:34:55.945Z</time>
      </trkpt>
      <trkpt lat="45.62769" lon="6.59636">
        <ele>1827</ele>
        <time>2021-02-26T09:35:54.694Z</time>
      </trkpt>
      <trkpt lat="45.62726" lon="6.59771">
        <ele>1836</ele>
        <time>2021-02-26T09:38:44.007Z</time>
      </trkpt>
      <trkpt lat="45.62734" lon="6.59795">
        <ele>1838</ele>
        <time>2021-02-26T09:39:14.866Z</time>
      </trkpt>
      <trkpt lat="45.62706" lon="6.59811">
        <ele>1842</ele>
        <time>2021-02-26T09:40:30.149Z</time>
      </trkpt>
      <trkpt lat="45.62707" lon="6.59838">
        <ele>1847</ele>
        <time>2021-02-26T09:41:16.611Z</time>
      </trkpt>
      <trkpt lat="45.62697" lon="6.5987">
        <ele>1854</ele>
        <time>2021-02-26T09:42:43.529Z</time>
      </trkpt>
      <trkpt lat="45.62678" lon="6.5989">
        <ele>1862</ele>
        <time>2021-02-26T09:44:07.948Z</time>
      </trkpt>
      <trkpt lat="45.62677" lon="6.59901">
        <ele>1865</ele>
        <time>2021-02-26T09:44:37.403Z</time>
      </trkpt>
      <trkpt lat="45.62687" lon="6.59915">
        <ele>1869</ele>
        <time>2021-02-26T09:45:24.294Z</time>
      </trkpt>
      <trkpt lat="45.6268" lon="6.59937">
        <ele>1874</ele>
        <time>2021-02-26T09:46:11.856Z</time>
      </trkpt>
      <trkpt lat="45.627" lon="6.59951">
        <ele>1879</ele>
        <time>2021-02-26T09:47:13.359Z</time>
      </trkpt>
      <trkpt lat="45.62715" lon="6.59988">
        <ele>1886</ele>
        <time>2021-02-26T09:48:24.006Z</time>
      </trkpt>
      <trkpt lat="45.62719" lon="6.60059">
        <ele>1895</ele>
        <time>2021-02-26T09:50:06.685Z</time>
      </trkpt>
      <trkpt lat="45.62693" lon="6.60033">
        <ele>1899</ele>
        <time>2021-02-26T09:50:59.722Z</time>
      </trkpt>
      <trkpt lat="45.62667" lon="6.60027">
        <ele>1901</ele>
        <time>2021-02-26T09:51:39.718Z</time>
      </trkpt>
      <trkpt lat="45.62622" lon="6.60035">
        <ele>1903</ele>
        <time>2021-02-26T09:52:49.720Z</time>
      </trkpt>
      <trkpt lat="45.62611" lon="6.60046">
        <ele>1903</ele>
        <time>2021-02-26T09:53:09.167Z</time>
      </trkpt>
      <trkpt lat="45.62588" lon="6.60098">
        <ele>1907</ele>
        <time>2021-02-26T09:54:18.158Z</time>
      </trkpt>
      <trkpt lat="45.62578" lon="6.60082">
        <ele>1908</ele>
        <time>2021-02-26T09:54:42.759Z</time>
      </trkpt>
      <trkpt lat="45.62577" lon="6.60047">
        <ele>1910</ele>
        <time>2021-02-26T09:55:21.777Z</time>
      </trkpt>
      <trkpt lat="45.62537" lon="6.60013">
        <ele>1914</ele>
        <time>2021-02-26T09:56:35.593Z</time>
      </trkpt>
      <trkpt lat="45.62497" lon="6.60003">
        <ele>1917</ele>
        <time>2021-02-26T09:57:45.544Z</time>
      </trkpt>
      <trkpt lat="45.62457" lon="6.59962">
        <ele>1924</ele>
        <time>2021-02-26T09:59:30.858Z</time>
      </trkpt>
      <trkpt lat="45.62454" lon="6.5997">
        <ele>1925</ele>
        <time>2021-02-26T09:59:44.657Z</time>
      </trkpt>
      <trkpt lat="45.62435" lon="6.59942">
        <ele>1931</ele>
        <time>2021-02-26T10:00:50.587Z</time>
      </trkpt>
      <trkpt lat="45.62427" lon="6.59942">
        <ele>1932</ele>
        <time>2021-02-26T10:01:09.815Z</time>
      </trkpt>
      <trkpt lat="45.62411" lon="6.59924">
        <ele>1937</ele>
        <time>2021-02-26T10:01:56.693Z</time>
      </trkpt>
      <trkpt lat="45.62371" lon="6.59966">
        <ele>1946</ele>
        <time>2021-02-26T10:03:45.015Z</time>
      </trkpt>
      <trkpt lat="45.62356" lon="6.59967">
        <ele>1949</ele>
        <time>2021-02-26T10:04:14.634Z</time>
      </trkpt>
      <trkpt lat="45.6235" lon="6.59957">
        <ele>1950</ele>
        <time>2021-02-26T10:04:31.292Z</time>
      </trkpt>
      <trkpt lat="45.6233" lon="6.59963">
        <ele>1952</ele>
        <time>2021-02-26T10:05:05.315Z</time>
      </trkpt>
      <trkpt lat="45.62298" lon="6.59958">
        <ele>1955</ele>
        <time>2021-02-26T10:05:57.214Z</time>
      </trkpt>
      <trkpt lat="45.62288" lon="6.59951">
        <ele>1956</ele>
        <time>2021-02-26T10:06:15.493Z</time>
      </trkpt>
      <trkpt lat="45.62286" lon="6.59937">
        <ele>1957</ele>
        <time>2021-02-26T10:06:32.993Z</time>
      </trkpt>
      <trkpt lat="45.62278" lon="6.5993">
        <ele>1958</ele>
        <time>2021-02-26T10:06:48.306Z</time>
      </trkpt>
      <trkpt lat="45.62266" lon="6.59938">
        <ele>1959</ele>
        <time>2021-02-26T10:07:13.524Z</time>
      </trkpt>
      <trkpt lat="45.62258" lon="6.5996">
        <ele>1962</ele>
        <time>2021-02-26T10:07:49.200Z</time>
      </trkpt>
      <trkpt lat="45.62247" lon="6.59953">
        <ele>1964</ele>
        <time>2021-02-26T10:08:16.406Z</time>
      </trkpt>
      <trkpt lat="45.62225" lon="6.59964">
        <ele>1969</ele>
        <time>2021-02-26T10:09:21.023Z</time>
      </trkpt>
      <trkpt lat="45.62224" lon="6.59972">
        <ele>1970</ele>
        <time>2021-02-26T10:09:36.441Z</time>
      </trkpt>
      <trkpt lat="45.62211" lon="6.59979">
        <ele>1974</ele>
        <time>2021-02-26T10:10:16.774Z</time>
      </trkpt>
      <trkpt lat="45.62199" lon="6.59998">
        <ele>1979</ele>
        <time>2021-02-26T10:11:09.288Z</time>
      </trkpt>
      <trkpt lat="45.62192" lon="6.59993">
        <ele>1981</ele>
        <time>2021-02-26T10:11:32.868Z</time>
      </trkpt>
      <trkpt lat="45.62163" lon="6.60013">
        <ele>1989</ele>
        <time>2021-02-26T10:12:58.075Z</time>
      </trkpt>
      <trkpt lat="45.62162" lon="6.60039">
        <ele>1994</ele>
        <time>2021-02-26T10:13:46.563Z</time>
      </trkpt>
      <trkpt lat="45.62121" lon="6.60027">
        <ele>2003</ele>
        <time>2021-02-26T10:15:27.242Z</time>
      </trkpt>
      <trkpt lat="45.62119" lon="6.60016">
        <ele>2004</ele>
        <time>2021-02-26T10:15:45.137Z</time>
      </trkpt>
      <trkpt lat="45.62097" lon="6.60024">
        <ele>2009</ele>
        <time>2021-02-26T10:16:41.506Z</time>
      </trkpt>
      <trkpt lat="45.62108" lon="6.59999">
        <ele>2013</ele>
        <time>2021-02-26T10:17:31.195Z</time>
      </trkpt>
      <trkpt lat="45.62105" lon="6.5999">
        <ele>2015</ele>
        <time>2021-02-26T10:17:49.546Z</time>
      </trkpt>
      <trkpt lat="45.62077" lon="6.60008">
        <ele>2021</ele>
        <time>2021-02-26T10:19:03.488Z</time>
      </trkpt>
      <trkpt lat="45.62041" lon="6.60003">
        <ele>2029</ele>
        <time>2021-02-26T10:20:43.599Z</time>
      </trkpt>
      <trkpt lat="45.62014" lon="6.60016">
        <ele>2037</ele>
        <time>2021-02-26T10:22:33.751Z</time>
      </trkpt>
      <trkpt lat="45.62013" lon="6.59999">
        <ele>2042</ele>
        <time>2021-02-26T10:23:22.186Z</time>
      </trkpt>
      <trkpt lat="45.61999" lon="6.60007">
        <ele>2048</ele>
        <time>2021-02-26T10:24:26.111Z</time>
      </trkpt>
      <trkpt lat="45.61996" lon="6.59988">
        <ele>2054</ele>
        <time>2021-02-26T10:25:25.802Z</time>
      </trkpt>
      <trkpt lat="45.6197" lon="6.59993">
        <ele>2063</ele>
        <time>2021-02-26T10:26:42.051Z</time>
      </trkpt>
      <trkpt lat="45.61975" lon="6.59968">
        <ele>2067</ele>
        <time>2021-02-26T10:27:18.752Z</time>
      </trkpt>
      <trkpt lat="45.61964" lon="6.59954">
        <ele>2069</ele>
        <time>2021-02-26T10:27:42.395Z</time>
      </trkpt>
      <trkpt lat="45.61866" lon="6.60014">
        <ele>2078</ele>
        <time>2021-02-26T10:30:34.261Z</time>
      </trkpt>
      <trkpt lat="45.61823" lon="6.60076">
        <ele>2084</ele>
        <time>2021-02-26T10:32:13.615Z</time>
      </trkpt>
      <trkpt lat="45.61777" lon="6.60177">
        <ele>2092</ele>
        <time>2021-02-26T10:34:30.109Z</time>
      </trkpt>
      <trkpt lat="45.61711" lon="6.6027">
        <ele>2101</ele>
        <time>2021-02-26T10:36:54.375Z</time>
      </trkpt>
      <trkpt lat="45.61723" lon="6.603">
        <ele>2100</ele>
        <time>2021-02-26T10:37:28.699Z</time>
      </trkpt>
      <trkpt lat="45.6164" lon="6.60362">
        <ele>2103</ele>
        <time>2021-02-26T10:39:55.055Z</time>
      </trkpt>
      <trkpt lat="45.61585" lon="6.6035">
        <ele>2111</ele>
        <time>2021-02-26T10:41:44.779Z</time>
      </trkpt>
      <trkpt lat="45.61564" lon="6.60328">
        <ele>2115</ele>
        <time>2021-02-26T10:42:32.444Z</time>
      </trkpt>
      <trkpt lat="45.61544" lon="6.60293">
        <ele>2118</ele>
        <time>2021-02-26T10:43:26.396Z</time>
      </trkpt>
      <trkpt lat="45.61512" lon="6.60288">
        <ele>2122</ele>
        <time>2021-02-26T10:44:17.750Z</time>
      </trkpt>
      <trkpt lat="45.61454" lon="6.60325">
        <ele>2126</ele>
        <time>2021-02-26T10:45:57.502Z</time>
      </trkpt>
      <trkpt lat="45.61438" lon="6.60324">
        <ele>2127</ele>
        <time>2021-02-26T10:46:22.194Z</time>
      </trkpt>
      <trkpt lat="45.61409" lon="6.60253">
        <ele>2132</ele>
        <time>2021-02-26T10:48:04.460Z</time>
      </trkpt>
      <trkpt lat="45.61381" lon="6.60191">
        <ele>2140</ele>
        <time>2021-02-26T10:49:51.714Z</time>
      </trkpt>
      <trkpt lat="45.61326" lon="6.60111">
        <ele>2153</ele>
        <time>2021-02-26T10:53:01.333Z</time>
      </trkpt>
      <trkpt lat="45.61285" lon="6.6">
        <ele>2175</ele>
        <time>2021-02-26T10:58:12.668Z</time>
      </trkpt>
      <trkpt lat="45.61246" lon="6.59974">
        <ele>2194</ele>
        <time>2021-02-26T11:01:11.189Z</time>
      </trkpt>
      <trkpt lat="45.61213" lon="6.59939">
        <ele>2206</ele>
        <time>2021-02-26T11:03:06.181Z</time>
      </trkpt>
      <trkpt lat="45.61203" lon="6.59886">
        <ele>2214</ele>
        <time>2021-02-26T11:04:34.852Z</time>
      </trkpt>
      <trkpt lat="45.61179" lon="6.59815">
        <ele>2224</ele>
        <time>2021-02-26T11:07:19.545Z</time>
      </trkpt>
      <trkpt lat="45.61167" lon="6.59685">
        <ele>2253</ele>
        <time>2021-02-26T11:12:41.126Z</time>
      </trkpt>
      <trkpt lat="45.61158" lon="6.5962">
        <ele>2267</ele>
        <time>2021-02-26T11:14:45.218Z</time>
      </trkpt>
      <trkpt lat="45.61152" lon="6.596">
        <ele>2269</ele>
        <time>2021-02-26T11:15:21.561Z</time>
      </trkpt>
      <trkpt lat="45.61152" lon="6.5958">
        <ele>2271</ele>
        <time>2021-02-26T11:15:47.435Z</time>
      </trkpt>
      <trkpt lat="45.61169" lon="6.5953">
        <ele>2276</ele>
        <time>2021-02-26T11:17:04.737Z</time>
      </trkpt>
      <trkpt lat="45.61143" lon="6.59375">
        <ele>2293</ele>
        <time>2021-02-26T11:20:52.829Z</time>
      </trkpt>
      <trkpt lat="45.61147" lon="6.59307">
        <ele>2301</ele>
        <time>2021-02-26T11:22:58.562Z</time>
      </trkpt>
      <trkpt lat="45.60977" lon="6.59065">
        <ele>2360</ele>
        <time>2021-02-26T11:33:04.099Z</time>
      </trkpt>
      <trkpt lat="45.60915" lon="6.58972">
        <ele>2375</ele>
        <time>2021-02-26T11:35:08.317Z</time>
      </trkpt>
      <trkpt lat="45.60975" lon="6.59065">
        <ele>2360</ele>
        <time>2021-02-26T11:37:59.443Z</time>
      </trkpt>
      <trkpt lat="45.61145" lon="6.5931">
        <ele>2302</ele>
        <time>2021-02-26T11:45:59.939Z</time>
      </trkpt>
      <trkpt lat="45.61142" lon="6.59376">
        <ele>2293</ele>
        <time>2021-02-26T11:47:23.197Z</time>
      </trkpt>
      <trkpt lat="45.61158" lon="6.59455">
        <ele>2282</ele>
        <time>2021-02-26T11:48:54.175Z</time>
      </trkpt>
      <trkpt lat="45.61166" lon="6.5953">
        <ele>2276</ele>
        <time>2021-02-26T11:50:14.134Z</time>
      </trkpt>
      <trkpt lat="45.61149" lon="6.59579">
        <ele>2271</ele>
        <time>2021-02-26T11:51:12.356Z</time>
      </trkpt>
      <trkpt lat="45.61148" lon="6.596">
        <ele>2269</ele>
        <time>2021-02-26T11:51:43.392Z</time>
      </trkpt>
      <trkpt lat="45.61156" lon="6.59621">
        <ele>2267</ele>
        <time>2021-02-26T11:52:21.024Z</time>
      </trkpt>
      <trkpt lat="45.61176" lon="6.59818">
        <ele>2223</ele>
        <time>2021-02-26T11:57:31.467Z</time>
      </trkpt>
      <trkpt lat="45.612" lon="6.59888">
        <ele>2213</ele>
        <time>2021-02-26T11:59:10.318Z</time>
      </trkpt>
      <trkpt lat="45.61211" lon="6.59945">
        <ele>2204</ele>
        <time>2021-02-26T12:00:36.031Z</time>
      </trkpt>
      <trkpt lat="45.61247" lon="6.5998">
        <ele>2192</ele>
        <time>2021-02-26T12:02:37.314Z</time>
      </trkpt>
      <trkpt lat="45.61281" lon="6.60002">
        <ele>2176</ele>
        <time>2021-02-26T12:04:11.564Z</time>
      </trkpt>
      <trkpt lat="45.61323" lon="6.60114">
        <ele>2152</ele>
        <time>2021-02-26T12:06:59.455Z</time>
      </trkpt>
      <trkpt lat="45.6138" lon="6.60194">
        <ele>2140</ele>
        <time>2021-02-26T12:09:00.827Z</time>
      </trkpt>
      <trkpt lat="45.61436" lon="6.60327">
        <ele>2128</ele>
        <time>2021-02-26T12:11:40.034Z</time>
      </trkpt>
      <trkpt lat="45.61454" lon="6.60328">
        <ele>2127</ele>
        <time>2021-02-26T12:12:06.382Z</time>
      </trkpt>
      <trkpt lat="45.61513" lon="6.6029">
        <ele>2121</ele>
        <time>2021-02-26T12:13:39.183Z</time>
      </trkpt>
      <trkpt lat="45.6154" lon="6.60294">
        <ele>2119</ele>
        <time>2021-02-26T12:14:19.363Z</time>
      </trkpt>
      <trkpt lat="45.61562" lon="6.60332">
        <ele>2115</ele>
        <time>2021-02-26T12:15:11.200Z</time>
      </trkpt>
      <trkpt lat="45.61584" lon="6.60355">
        <ele>2111</ele>
        <time>2021-02-26T12:15:54.529Z</time>
      </trkpt>
      <trkpt lat="45.61633" lon="6.60365">
        <ele>2103</ele>
        <time>2021-02-26T12:17:04.352Z</time>
      </trkpt>
      <trkpt lat="45.61723" lon="6.603">
        <ele>2102</ele>
        <time>2021-02-26T12:19:23.223Z</time>
      </trkpt>
      <trkpt lat="45.61729" lon="6.60308">
        <ele>2102</ele>
        <time>2021-02-26T12:19:35.073Z</time>
      </trkpt>
      <trkpt lat="45.61741" lon="6.60335">
        <ele>2102</ele>
        <time>2021-02-26T12:20:06.456Z</time>
      </trkpt>
      <trkpt lat="45.61747" lon="6.60387">
        <ele>2101</ele>
        <time>2021-02-26T12:20:56.869Z</time>
      </trkpt>
      <trkpt lat="45.61771" lon="6.60431">
        <ele>2100</ele>
        <time>2021-02-26T12:21:51.370Z</time>
      </trkpt>
      <trkpt lat="45.61778" lon="6.60503">
        <ele>2101</ele>
        <time>2021-02-26T12:23:03.012Z</time>
      </trkpt>
      <trkpt lat="45.61792" lon="6.60525">
        <ele>2101</ele>
        <time>2021-02-26T12:23:31.912Z</time>
      </trkpt>
      <trkpt lat="45.61822" lon="6.60541">
        <ele>2101</ele>
        <time>2021-02-26T12:24:16.222Z</time>
      </trkpt>
      <trkpt lat="45.61838" lon="6.60572">
        <ele>2099</ele>
        <time>2021-02-26T12:25:04.606Z</time>
      </trkpt>
      <trkpt lat="45.61819" lon="6.60695">
        <ele>2079</ele>
        <time>2021-02-26T12:28:06.082Z</time>
      </trkpt>
      <trkpt lat="45.61822" lon="6.60756">
        <ele>2067</ele>
        <time>2021-02-26T12:29:34.259Z</time>
      </trkpt>
      <trkpt lat="45.6183" lon="6.60796">
        <ele>2061</ele>
        <time>2021-02-26T12:30:18.937Z</time>
      </trkpt>
      <trkpt lat="45.61823" lon="6.60835">
        <ele>2060</ele>
        <time>2021-02-26T12:30:58.433Z</time>
      </trkpt>
      <trkpt lat="45.6183" lon="6.60796">
        <ele>2062</ele>
        <time>2021-02-26T12:31:48.376Z</time>
      </trkpt>
      <trkpt lat="45.61822" lon="6.60756">
        <ele>2067</ele>
        <time>2021-02-26T12:33:02.491Z</time>
      </trkpt>
      <trkpt lat="45.61819" lon="6.60695">
        <ele>2078</ele>
        <time>2021-02-26T12:34:59.184Z</time>
      </trkpt>
      <trkpt lat="45.61838" lon="6.60572">
        <ele>2099</ele>
        <time>2021-02-26T12:38:31.202Z</time>
      </trkpt>
      <trkpt lat="45.61822" lon="6.60541">
        <ele>2102</ele>
        <time>2021-02-26T12:39:11.228Z</time>
      </trkpt>
      <trkpt lat="45.61792" lon="6.60525">
        <ele>2101</ele>
        <time>2021-02-26T12:39:55.538Z</time>
      </trkpt>
      <trkpt lat="45.61778" lon="6.60503">
        <ele>2100</ele>
        <time>2021-02-26T12:40:23.938Z</time>
      </trkpt>
      <trkpt lat="45.61771" lon="6.60431">
        <ele>2100</ele>
        <time>2021-02-26T12:41:37.182Z</time>
      </trkpt>
      <trkpt lat="45.61747" lon="6.60387">
        <ele>2102</ele>
        <time>2021-02-26T12:42:34.303Z</time>
      </trkpt>
      <trkpt lat="45.61741" lon="6.60335">
        <ele>2102</ele>
        <time>2021-02-26T12:43:24.716Z</time>
      </trkpt>
      <trkpt lat="45.61711" lon="6.6027">
        <ele>2100</ele>
        <time>2021-02-26T12:44:40.891Z</time>
      </trkpt>
      <trkpt lat="45.61777" lon="6.60177">
        <ele>2093</ele>
        <time>2021-02-26T12:46:56.265Z</time>
      </trkpt>
      <trkpt lat="45.61823" lon="6.60076">
        <ele>2083</ele>
        <time>2021-02-26T12:48:58.892Z</time>
      </trkpt>
      <trkpt lat="45.61866" lon="6.60014">
        <ele>2079</ele>
        <time>2021-02-26T12:50:26.537Z</time>
      </trkpt>
      <trkpt lat="45.61964" lon="6.59954">
        <ele>2069</ele>
        <time>2021-02-26T12:53:07.747Z</time>
      </trkpt>
      <trkpt lat="45.61975" lon="6.59968">
        <ele>2066</ele>
        <time>2021-02-26T12:53:29.507Z</time>
      </trkpt>
      <trkpt lat="45.6197" lon="6.59993">
        <ele>2062</ele>
        <time>2021-02-26T12:54:08.698Z</time>
      </trkpt>
      <trkpt lat="45.61996" lon="6.59988">
        <ele>2054</ele>
        <time>2021-02-26T12:55:21.976Z</time>
      </trkpt>
      <trkpt lat="45.61999" lon="6.60007">
        <ele>2049</ele>
        <time>2021-02-26T12:56:01.945Z</time>
      </trkpt>
      <trkpt lat="45.62013" lon="6.59999">
        <ele>2043</ele>
        <time>2021-02-26T12:56:46.408Z</time>
      </trkpt>
      <trkpt lat="45.62014" lon="6.60016">
        <ele>2038</ele>
        <time>2021-02-26T12:57:22.737Z</time>
      </trkpt>
      <trkpt lat="45.62041" lon="6.60003">
        <ele>2028</ele>
        <time>2021-02-26T12:58:26.648Z</time>
      </trkpt>
      <trkpt lat="45.62077" lon="6.60008">
        <ele>2020</ele>
        <time>2021-02-26T12:59:33.777Z</time>
      </trkpt>
      <trkpt lat="45.62105" lon="6.5999">
        <ele>2014</ele>
        <time>2021-02-26T13:00:24.526Z</time>
      </trkpt>
      <trkpt lat="45.62108" lon="6.59999">
        <ele>2013</ele>
        <time>2021-02-26T13:00:37.946Z</time>
      </trkpt>
      <trkpt lat="45.62097" lon="6.60024">
        <ele>2010</ele>
        <time>2021-02-26T13:01:13.012Z</time>
      </trkpt>
      <trkpt lat="45.62119" lon="6.60016">
        <ele>2005</ele>
        <time>2021-02-26T13:01:59.160Z</time>
      </trkpt>
      <trkpt lat="45.62121" lon="6.60027">
        <ele>2003</ele>
        <time>2021-02-26T13:02:14.110Z</time>
      </trkpt>
      <trkpt lat="45.62162" lon="6.60039">
        <ele>1993</ele>
        <time>2021-02-26T13:03:39.604Z</time>
      </trkpt>
      <trkpt lat="45.62163" lon="6.60013">
        <ele>1989</ele>
        <time>2021-02-26T13:04:16.030Z</time>
      </trkpt>
      <trkpt lat="45.62192" lon="6.59993">
        <ele>1981</ele>
        <time>2021-02-26T13:05:23.652Z</time>
      </trkpt>
      <trkpt lat="45.62199" lon="6.59998">
        <ele>1979</ele>
        <time>2021-02-26T13:05:40.298Z</time>
      </trkpt>
      <trkpt lat="45.62211" lon="6.59979">
        <ele>1974</ele>
        <time>2021-02-26T13:06:16.544Z</time>
      </trkpt>
      <trkpt lat="45.62224" lon="6.59972">
        <ele>1971</ele>
        <time>2021-02-26T13:06:46.553Z</time>
      </trkpt>
      <trkpt lat="45.62225" lon="6.59964">
        <ele>1970</ele>
        <time>2021-02-26T13:06:58.057Z</time>
      </trkpt>
      <trkpt lat="45.62247" lon="6.59953">
        <ele>1964</ele>
        <time>2021-02-26T13:07:42.177Z</time>
      </trkpt>
      <trkpt lat="45.62258" lon="6.5996">
        <ele>1962</ele>
        <time>2021-02-26T13:08:02.790Z</time>
      </trkpt>
      <trkpt lat="45.62266" lon="6.59938">
        <ele>1959</ele>
        <time>2021-02-26T13:08:28.446Z</time>
      </trkpt>
      <trkpt lat="45.62278" lon="6.5993">
        <ele>1958</ele>
        <time>2021-02-26T13:08:48.671Z</time>
      </trkpt>
      <trkpt lat="45.62286" lon="6.59937">
        <ele>1957</ele>
        <time>2021-02-26T13:09:01.572Z</time>
      </trkpt>
      <trkpt lat="45.62288" lon="6.59951">
        <ele>1956</ele>
        <time>2021-02-26T13:09:16.458Z</time>
      </trkpt>
      <trkpt lat="45.62298" lon="6.59958">
        <ele>1955</ele>
        <time>2021-02-26T13:09:32.975Z</time>
      </trkpt>
      <trkpt lat="45.6233" lon="6.59963">
        <ele>1952</ele>
        <time>2021-02-26T13:10:19.550Z</time>
      </trkpt>
      <trkpt lat="45.6235" lon="6.59957">
        <ele>1950</ele>
        <time>2021-02-26T13:10:50.930Z</time>
      </trkpt>
      <trkpt lat="45.62356" lon="6.59967">
        <ele>1949</ele>
        <time>2021-02-26T13:11:06.103Z</time>
      </trkpt>
      <trkpt lat="45.62371" lon="6.59966">
        <ele>1946</ele>
        <time>2021-02-26T13:11:30.617Z</time>
      </trkpt>
      <trkpt lat="45.62411" lon="6.59924">
        <ele>1937</ele>
        <time>2021-02-26T13:12:58.754Z</time>
      </trkpt>
      <trkpt lat="45.62427" lon="6.59942">
        <ele>1932</ele>
        <time>2021-02-26T13:13:36.076Z</time>
      </trkpt>
      <trkpt lat="45.62435" lon="6.59942">
        <ele>1931</ele>
        <time>2021-02-26T13:13:51.699Z</time>
      </trkpt>
      <trkpt lat="45.62454" lon="6.5997">
        <ele>1925</ele>
        <time>2021-02-26T13:14:36.328Z</time>
      </trkpt>
      <trkpt lat="45.62457" lon="6.59962">
        <ele>1924</ele>
        <time>2021-02-26T13:14:47.101Z</time>
      </trkpt>
      <trkpt lat="45.62497" lon="6.60003">
        <ele>1917</ele>
        <time>2021-02-26T13:16:00.479Z</time>
      </trkpt>
      <trkpt lat="45.62537" lon="6.60013">
        <ele>1914</ele>
        <time>2021-02-26T13:16:58.253Z</time>
      </trkpt>
      <trkpt lat="45.62577" lon="6.60047">
        <ele>1910</ele>
        <time>2021-02-26T13:18:05.164Z</time>
      </trkpt>
      <trkpt lat="45.62578" lon="6.60082">
        <ele>1908</ele>
        <time>2021-02-26T13:18:40.294Z</time>
      </trkpt>
      <trkpt lat="45.62588" lon="6.60098">
        <ele>1907</ele>
        <time>2021-02-26T13:19:02.454Z</time>
      </trkpt>
      <trkpt lat="45.62611" lon="6.60046">
        <ele>1903</ele>
        <time>2021-02-26T13:20:03.341Z</time>
      </trkpt>
      <trkpt lat="45.62622" lon="6.60035">
        <ele>1902</ele>
        <time>2021-02-26T13:20:21.216Z</time>
      </trkpt>
      <trkpt lat="45.62667" lon="6.60027">
        <ele>1900</ele>
        <time>2021-02-26T13:21:24.416Z</time>
      </trkpt>
      <trkpt lat="45.62693" lon="6.60033">
        <ele>1899</ele>
        <time>2021-02-26T13:22:01.398Z</time>
      </trkpt>
      <trkpt lat="45.62719" lon="6.60059">
        <ele>1896</ele>
        <time>2021-02-26T13:22:50.661Z</time>
      </trkpt>
      <trkpt lat="45.62715" lon="6.59988">
        <ele>1887</ele>
        <time>2021-02-26T13:24:24.622Z</time>
      </trkpt>
      <trkpt lat="45.627" lon="6.59951">
        <ele>1879</ele>
        <time>2021-02-26T13:25:28.854Z</time>
      </trkpt>
      <trkpt lat="45.6268" lon="6.59937">
        <ele>1873</ele>
        <time>2021-02-26T13:26:16.677Z</time>
      </trkpt>
      <trkpt lat="45.62687" lon="6.59915">
        <ele>1869</ele>
        <time>2021-02-26T13:26:54.634Z</time>
      </trkpt>
      <trkpt lat="45.62677" lon="6.59901">
        <ele>1865</ele>
        <time>2021-02-26T13:27:27.173Z</time>
      </trkpt>
      <trkpt lat="45.62678" lon="6.5989">
        <ele>1862</ele>
        <time>2021-02-26T13:27:46.024Z</time>
      </trkpt>
      <trkpt lat="45.62697" lon="6.5987">
        <ele>1855</ele>
        <time>2021-02-26T13:28:40.336Z</time>
      </trkpt>
      <trkpt lat="45.62707" lon="6.59838">
        <ele>1848</ele>
        <time>2021-02-26T13:29:29.222Z</time>
      </trkpt>
      <trkpt lat="45.62706" lon="6.59811">
        <ele>1843</ele>
        <time>2021-02-26T13:30:06.555Z</time>
      </trkpt>
      <trkpt lat="45.62734" lon="6.59795">
        <ele>1838</ele>
        <time>2021-02-26T13:30:49.045Z</time>
      </trkpt>
      <trkpt lat="45.62755" lon="6.59796">
        <ele>1838</ele>
        <time>2021-02-26T13:31:16.860Z</time>
      </trkpt>
      <trkpt lat="45.62799" lon="6.59832">
        <ele>1843</ele>
        <time>2021-02-26T13:32:39.106Z</time>
      </trkpt>
      <trkpt lat="45.62828" lon="6.59842">
        <ele>1845</ele>
        <time>2021-02-26T13:33:23.754Z</time>
      </trkpt>
      <trkpt lat="45.62866" lon="6.59877">
        <ele>1847</ele>
        <time>2021-02-26T13:34:32.801Z</time>
      </trkpt>
      <trkpt lat="45.62876" lon="6.59922">
        <ele>1850</ele>
        <time>2021-02-26T13:35:24.597Z</time>
      </trkpt>
      <trkpt lat="45.62934" lon="6.59911">
        <ele>1853</ele>
        <time>2021-02-26T13:36:44.449Z</time>
      </trkpt>
      <trkpt lat="45.62955" lon="6.59888">
        <ele>1848</ele>
        <time>2021-02-26T13:37:25.736Z</time>
      </trkpt>
      <trkpt lat="45.63072" lon="6.59805">
        <ele>1831</ele>
        <time>2021-02-26T13:40:39.477Z</time>
      </trkpt>
      <trkpt lat="45.63086" lon="6.59775">
        <ele>1831</ele>
        <time>2021-02-26T13:41:14.749Z</time>
      </trkpt>
      <trkpt lat="45.63148" lon="6.59709">
        <ele>1824</ele>
        <time>2021-02-26T13:43:09.107Z</time>
      </trkpt>
      <trkpt lat="45.6318" lon="6.59695">
        <ele>1819</ele>
        <time>2021-02-26T13:43:58.990Z</time>
      </trkpt>
      <trkpt lat="45.63192" lon="6.59677">
        <ele>1817</ele>
        <time>2021-02-26T13:44:24.984Z</time>
      </trkpt>
      <trkpt lat="45.63193" lon="6.59635">
        <ele>1815</ele>
        <time>2021-02-26T13:45:06.225Z</time>
      </trkpt>
      <trkpt lat="45.63219" lon="6.59619">
        <ele>1814</ele>
        <time>2021-02-26T13:45:45.002Z</time>
      </trkpt>
      <trkpt lat="45.63234" lon="6.59571">
        <ele>1814</ele>
        <time>2021-02-26T13:46:36.780Z</time>
      </trkpt>
      <trkpt lat="45.63282" lon="6.59505">
        <ele>1810</ele>
        <time>2021-02-26T13:48:11.060Z</time>
      </trkpt>
      <trkpt lat="45.63286" lon="6.59471">
        <ele>1807</ele>
        <time>2021-02-26T13:48:47.480Z</time>
      </trkpt>
      <trkpt lat="45.63306" lon="6.59438">
        <ele>1803</ele>
        <time>2021-02-26T13:49:33.151Z</time>
      </trkpt>
      <trkpt lat="45.633" lon="6.5943">
        <ele>1802</ele>
        <time>2021-02-26T13:49:46.423Z</time>
      </trkpt>
      <trkpt lat="45.63262" lon="6.59474">
        <ele>1797</ele>
        <time>2021-02-26T13:50:58.870Z</time>
      </trkpt>
      <trkpt lat="45.63255" lon="6.59463">
        <ele>1796</ele>
        <time>2021-02-26T13:51:14.170Z</time>
      </trkpt>
      <trkpt lat="45.63324" lon="6.59326">
        <ele>1782</ele>
        <time>2021-02-26T13:54:04.111Z</time>
      </trkpt>
      <trkpt lat="45.63345" lon="6.5931">
        <ele>1784</ele>
        <time>2021-02-26T13:54:36.705Z</time>
      </trkpt>
      <trkpt lat="45.63484" lon="6.59286">
        <ele>1775</ele>
        <time>2021-02-26T13:58:01.571Z</time>
      </trkpt>
      <trkpt lat="45.63515" lon="6.59258">
        <ele>1767</ele>
        <time>2021-02-26T13:59:01.333Z</time>
      </trkpt>
      <trkpt lat="45.63571" lon="6.5926">
        <ele>1760</ele>
        <time>2021-02-26T14:00:25.042Z</time>
      </trkpt>
      <trkpt lat="45.63577" lon="6.59244">
        <ele>1758</ele>
        <time>2021-02-26T14:00:44.072Z</time>
      </trkpt>
      <trkpt lat="45.63568" lon="6.59234">
        <ele>1757</ele>
        <time>2021-02-26T14:01:00.924Z</time>
      </trkpt>
      <trkpt lat="45.63482" lon="6.59203">
        <ele>1748</ele>
        <time>2021-02-26T14:03:11.010Z</time>
      </trkpt>
      <trkpt lat="45.63461" lon="6.59217">
        <ele>1746</ele>
        <time>2021-02-26T14:03:43.335Z</time>
      </trkpt>
      <trkpt lat="45.63414" lon="6.59208">
        <ele>1743</ele>
        <time>2021-02-26T14:04:49.824Z</time>
      </trkpt>
      <trkpt lat="45.63362" lon="6.59219">
        <ele>1740</ele>
        <time>2021-02-26T14:06:05.840Z</time>
      </trkpt>
      <trkpt lat="45.63293" lon="6.59212">
        <ele>1732</ele>
        <time>2021-02-26T14:07:49.654Z</time>
      </trkpt>
      <trkpt lat="45.63287" lon="6.59194">
        <ele>1730</ele>
        <time>2021-02-26T14:08:11.031Z</time>
      </trkpt>
      <trkpt lat="45.63296" lon="6.59183">
        <ele>1728</ele>
        <time>2021-02-26T14:08:29.368Z</time>
      </trkpt>
      <trkpt lat="45.63336" lon="6.5917">
        <ele>1722</ele>
        <time>2021-02-26T14:09:30.131Z</time>
      </trkpt>
      <trkpt lat="45.63378" lon="6.59134">
        <ele>1718</ele>
        <time>2021-02-26T14:10:41.128Z</time>
      </trkpt>
      <trkpt lat="45.63423" lon="6.59109">
        <ele>1714</ele>
        <time>2021-02-26T14:11:51.885Z</time>
      </trkpt>
      <trkpt lat="45.63465" lon="6.59099">
        <ele>1708</ele>
        <time>2021-02-26T14:12:57.144Z</time>
      </trkpt>
      <trkpt lat="45.63493" lon="6.59069">
        <ele>1704</ele>
        <time>2021-02-26T14:13:44.833Z</time>
      </trkpt>
      <trkpt lat="45.63545" lon="6.59031">
        <ele>1703</ele>
        <time>2021-02-26T14:15:09.024Z</time>
      </trkpt>
      <trkpt lat="45.63587" lon="6.58989">
        <ele>1694</ele>
        <time>2021-02-26T14:16:39.967Z</time>
      </trkpt>
      <trkpt lat="45.63607" lon="6.58948">
        <ele>1687</ele>
        <time>2021-02-26T14:17:28.348Z</time>
      </trkpt>
      <trkpt lat="45.6367" lon="6.58916">
        <ele>1687</ele>
        <time>2021-02-26T14:19:00.779Z</time>
      </trkpt>
      <trkpt lat="45.63704" lon="6.58915">
        <ele>1682</ele>
        <time>2021-02-26T14:20:08.551Z</time>
      </trkpt>
      <trkpt lat="45.63707" lon="6.58873">
        <ele>1672</ele>
        <time>2021-02-26T14:21:39.323Z</time>
      </trkpt>
      <trkpt lat="45.63717" lon="6.5884">
        <ele>1661</ele>
        <time>2021-02-26T14:22:53.516Z</time>
      </trkpt>
      <trkpt lat="45.63753" lon="6.58812">
        <ele>1648</ele>
        <time>2021-02-26T14:24:22.814Z</time>
      </trkpt>
      <trkpt lat="45.6377" lon="6.58809">
        <ele>1644</ele>
        <time>2021-02-26T14:24:59.220Z</time>
      </trkpt>
      <trkpt lat="45.63782" lon="6.58798">
        <ele>1641</ele>
        <time>2021-02-26T14:25:19.729Z</time>
      </trkpt>
      <trkpt lat="45.63791" lon="6.58778">
        <ele>1639</ele>
        <time>2021-02-26T14:25:42.019Z</time>
      </trkpt>
      <trkpt lat="45.63876" lon="6.58739">
        <ele>1638</ele>
        <time>2021-02-26T14:27:44.875Z</time>
      </trkpt>
      <trkpt lat="45.63928" lon="6.58734">
        <ele>1635</ele>
        <time>2021-02-26T14:28:56.645Z</time>
      </trkpt>
      <trkpt lat="45.63995" lon="6.5871">
        <ele>1635</ele>
        <time>2021-02-26T14:30:32.533Z</time>
      </trkpt>
      <trkpt lat="45.64027" lon="6.58711">
        <ele>1635</ele>
        <time>2021-02-26T14:31:20.039Z</time>
      </trkpt>
      <trkpt lat="45.64114" lon="6.58688">
        <ele>1639</ele>
        <time>2021-02-26T14:33:35.625Z</time>
      </trkpt>
      <trkpt lat="45.64163" lon="6.58648">
        <ele>1644</ele>
        <time>2021-02-26T14:35:05.591Z</time>
      </trkpt>
      <trkpt lat="45.64183" lon="6.58645">
        <ele>1646</ele>
        <time>2021-02-26T14:35:37.714Z</time>
      </trkpt>
      <trkpt lat="45.6421" lon="6.58617">
        <ele>1648</ele>
        <time>2021-02-26T14:36:30.881Z</time>
      </trkpt>
      <trkpt lat="45.64258" lon="6.58596">
        <ele>1653</ele>
        <time>2021-02-26T14:37:51.516Z</time>
      </trkpt>
      <trkpt lat="45.6429" lon="6.58571">
        <ele>1656</ele>
        <time>2021-02-26T14:38:48.752Z</time>
      </trkpt>
      <trkpt lat="45.64316" lon="6.58532">
        <ele>1659</ele>
        <time>2021-02-26T14:39:50.031Z</time>
      </trkpt>
      <trkpt lat="45.64342" lon="6.58517">
        <ele>1662</ele>
        <time>2021-02-26T14:40:33.646Z</time>
      </trkpt>
      <trkpt lat="45.64385" lon="6.58506">
        <ele>1665</ele>
        <time>2021-02-26T14:41:41.611Z</time>
      </trkpt>
      <trkpt lat="45.64412" lon="6.58479">
        <ele>1667</ele>
        <time>2021-02-26T14:42:32.188Z</time>
      </trkpt>
      <trkpt lat="45.64442" lon="6.58462">
        <ele>1669</ele>
        <time>2021-02-26T14:43:24.137Z</time>
      </trkpt>
      <trkpt lat="45.64494" lon="6.5846">
        <ele>1675</ele>
        <time>2021-02-26T14:44:48.531Z</time>
      </trkpt>
      <trkpt lat="45.64518" lon="6.58466">
        <ele>1676</ele>
        <time>2021-02-26T14:45:22.638Z</time>
      </trkpt>
      <trkpt lat="45.64625" lon="6.5853">
        <ele>1672</ele>
        <time>2021-02-26T14:48:05.574Z</time>
      </trkpt>
      <trkpt lat="45.64666" lon="6.58581">
        <ele>1678</ele>
        <time>2021-02-26T14:49:20.721Z</time>
      </trkpt>
      <trkpt lat="45.64678" lon="6.58606">
        <ele>1676</ele>
        <time>2021-02-26T14:49:49.737Z</time>
      </trkpt>
      <trkpt lat="45.64724" lon="6.58619">
        <ele>1665</ele>
        <time>2021-02-26T14:50:59.199Z</time>
      </trkpt>
      <trkpt lat="45.64767" lon="6.58646">
        <ele>1666</ele>
        <time>2021-02-26T14:52:12.317Z</time>
      </trkpt>
      <trkpt lat="45.64783" lon="6.58669">
        <ele>1670</ele>
        <time>2021-02-26T14:52:46.443Z</time>
      </trkpt>
      <trkpt lat="45.64861" lon="6.5872">
        <ele>1654</ele>
        <time>2021-02-26T14:55:33.952Z</time>
      </trkpt>
      <trkpt lat="45.6492" lon="6.58728">
        <ele>1637</ele>
        <time>2021-02-26T14:57:32.350Z</time>
      </trkpt>
      <trkpt lat="45.64945" lon="6.5872">
        <ele>1634</ele>
        <time>2021-02-26T14:58:12.599Z</time>
      </trkpt>
      <trkpt lat="45.64991" lon="6.58642">
        <ele>1624</ele>
        <time>2021-02-26T14:59:58.975Z</time>
      </trkpt>
      <trkpt lat="45.64997" lon="6.586">
        <ele>1622</ele>
        <time>2021-02-26T15:00:40.516Z</time>
      </trkpt>
      <trkpt lat="45.65005" lon="6.58587">
        <ele>1622</ele>
        <time>2021-02-26T15:00:57.041Z</time>
      </trkpt>
      <trkpt lat="45.65018" lon="6.58586">
        <ele>1622</ele>
        <time>2021-02-26T15:01:15.432Z</time>
      </trkpt>
      <trkpt lat="45.65076" lon="6.58621">
        <ele>1619</ele>
        <time>2021-02-26T15:02:50.638Z</time>
      </trkpt>
      <trkpt lat="45.65094" lon="6.58608">
        <ele>1614</ele>
        <time>2021-02-26T15:03:21.288Z</time>
      </trkpt>
      <trkpt lat="45.65093" lon="6.58557">
        <ele>1606</ele>
        <time>2021-02-26T15:04:22.568Z</time>
      </trkpt>
      <trkpt lat="45.65099" lon="6.5852">
        <ele>1603</ele>
        <time>2021-02-26T15:04:59.171Z</time>
      </trkpt>
      <trkpt lat="45.65139" lon="6.58467">
        <ele>1606</ele>
        <time>2021-02-26T15:06:14.648Z</time>
      </trkpt>
      <trkpt lat="45.65159" lon="6.58429">
        <ele>1603</ele>
        <time>2021-02-26T15:07:07.211Z</time>
      </trkpt>
      <trkpt lat="45.65169" lon="6.58343">
        <ele>1592</ele>
        <time>2021-02-26T15:08:41.492Z</time>
      </trkpt>
      <trkpt lat="45.65155" lon="6.58246">
        <ele>1584</ele>
        <time>2021-02-26T15:10:26.861Z</time>
      </trkpt>
      <trkpt lat="45.65132" lon="6.58195">
        <ele>1578</ele>
        <time>2021-02-26T15:11:24.888Z</time>
      </trkpt>
      <trkpt lat="45.65132" lon="6.58135">
        <ele>1580</ele>
        <time>2021-02-26T15:12:27.974Z</time>
      </trkpt>
    </trkseg>
  </trk>
</gpx>